createdAt,value
2018-12-08T00:01:13.550Z,7.95
2018-12-08T00:02:13.568Z,8.03
2018-12-08T00:04:08.173Z,7.95
2018-12-08T00:05:08.171Z,8.02
2018-12-08T00:07:02.382Z,8.04
2018-12-08T00:08:02.285Z,7.89
2018-12-08T00:09:56.500Z,7.91
2018-12-08T00:10:56.451Z,8.06
2018-12-08T00:12:50.697Z,7.88
2018-12-08T00:13:50.582Z,7.92
2018-12-08T00:15:44.751Z,8.00
2018-12-08T00:16:44.778Z,7.95
2018-12-08T00:18:38.961Z,8.07
2018-12-08T00:19:38.911Z,7.96
2018-12-08T00:21:33.051Z,8.02
2018-12-08T00:22:33.051Z,7.88
2018-12-08T00:24:27.770Z,8.06
2018-12-08T00:25:27.720Z,8.03
2018-12-08T00:27:21.997Z,8.02
2018-12-08T00:28:21.851Z,7.94
2018-12-08T00:30:16.578Z,7.94
2018-12-08T00:31:16.595Z,7.88
2018-12-08T00:33:11.168Z,7.96
2018-12-08T00:34:11.147Z,8.04
2018-12-08T00:36:05.441Z,8.06
2018-12-08T00:37:05.310Z,8.04
2018-12-08T00:38:59.961Z,7.94
2018-12-08T00:39:59.951Z,7.95
2018-12-08T00:41:54.711Z,8.07
2018-12-08T00:42:54.600Z,8.03
2018-12-08T00:44:49.260Z,7.96
2018-12-08T00:45:49.240Z,7.94
2018-12-08T00:47:43.501Z,7.94
2018-12-08T00:48:43.417Z,7.92
2018-12-08T00:50:37.571Z,7.96
2018-12-08T00:51:37.578Z,7.89
2018-12-08T00:53:31.980Z,7.95
2018-12-08T00:54:32.370Z,7.92
2018-12-08T00:56:26.170Z,7.89
2018-12-08T00:57:26.040Z,7.73
2018-12-08T00:59:20.358Z,7.99
2018-12-08T01:00:20.196Z,7.92
2018-12-08T01:02:14.466Z,8.03
2018-12-08T01:03:14.348Z,7.94
2018-12-08T01:05:09.176Z,7.81
2018-12-08T01:06:09.021Z,7.74
2018-12-08T01:08:03.150Z,7.82
2018-12-08T01:09:03.208Z,7.77
2018-12-08T01:10:57.399Z,7.74
2018-12-08T01:11:57.316Z,7.71
2018-12-08T01:13:51.471Z,7.73
2018-12-08T01:14:51.439Z,7.88
2018-12-08T01:16:45.852Z,7.88
2018-12-08T01:17:45.608Z,7.81
2018-12-08T01:19:39.760Z,7.69
2018-12-08T01:20:39.759Z,7.70
2018-12-08T01:22:33.988Z,7.77
2018-12-08T01:23:33.927Z,7.82
2018-12-08T01:25:28.087Z,7.73
2018-12-08T01:26:28.051Z,7.57
2018-12-08T01:28:22.329Z,7.67
2018-12-08T01:29:22.209Z,7.73
2018-12-08T01:31:16.386Z,7.74
2018-12-08T01:32:16.360Z,7.55
2018-12-08T01:34:10.630Z,7.60
2018-12-08T01:35:10.510Z,7.70
2018-12-08T01:37:04.700Z,7.73
2018-12-08T01:38:04.721Z,7.50
2018-12-08T01:39:58.945Z,7.55
2018-12-08T01:40:58.896Z,7.54
2018-12-08T01:42:53.014Z,7.69
2018-12-08T01:43:52.985Z,7.70
2018-12-08T01:45:47.684Z,7.45
2018-12-08T01:46:47.721Z,7.44
2018-12-08T01:48:42.275Z,7.52
2018-12-08T01:49:42.267Z,7.58
2018-12-08T01:51:37.015Z,7.62
2018-12-08T01:52:36.987Z,7.58
2018-12-08T01:54:31.574Z,7.55
2018-12-08T01:55:31.555Z,7.55
2018-12-08T01:57:25.847Z,7.66
2018-12-08T01:58:25.704Z,7.47
2018-12-08T02:00:19.894Z,7.63
2018-12-08T02:01:19.911Z,7.55
2018-12-08T02:03:14.083Z,7.54
2018-12-08T02:04:14.014Z,7.57
2018-12-08T02:06:08.173Z,7.54
2018-12-08T02:07:08.173Z,7.60
2018-12-08T02:09:02.373Z,7.69
2018-12-08T02:10:02.347Z,7.63
2018-12-08T02:11:56.483Z,7.67
2018-12-08T02:12:56.474Z,7.76
2018-12-08T02:14:51.263Z,7.77
2018-12-08T02:15:51.112Z,7.74
2018-12-08T02:17:45.282Z,7.79
2018-12-08T02:18:45.283Z,7.81
2018-12-08T02:20:39.515Z,7.74
2018-12-08T02:21:39.519Z,7.73
2018-12-08T02:23:33.649Z,7.77
2018-12-08T02:24:33.574Z,7.85
2018-12-08T02:26:27.862Z,7.63
2018-12-08T02:27:27.736Z,7.73
2018-12-08T02:29:21.942Z,7.76
2018-12-08T02:30:21.893Z,7.76
2018-12-08T02:32:16.135Z,7.71
2018-12-08T02:33:16.141Z,7.63
2018-12-08T02:35:10.690Z,7.55
2018-12-08T02:36:10.678Z,7.62
2018-12-08T02:38:05.462Z,7.76
2018-12-08T02:39:05.382Z,7.76
2018-12-08T02:40:59.514Z,7.54
2018-12-08T02:41:59.511Z,7.57
2018-12-08T02:43:53.753Z,7.57
2018-12-08T02:44:53.670Z,7.51
2018-12-08T02:46:48.295Z,7.50
2018-12-08T02:47:48.277Z,7.55
2018-12-08T02:49:42.518Z,7.45
2018-12-08T02:50:42.438Z,7.50
2018-12-08T02:52:36.609Z,7.58
2018-12-08T02:53:36.587Z,7.55
2018-12-08T02:55:30.818Z,7.54
2018-12-08T02:56:30.738Z,7.55
2018-12-08T02:58:25.401Z,7.55
2018-12-08T02:59:25.410Z,7.57
2018-12-08T03:01:19.657Z,7.47
2018-12-08T03:02:19.543Z,7.51
2018-12-08T03:04:13.689Z,7.55
2018-12-08T03:05:13.745Z,7.52
2018-12-08T03:07:07.914Z,7.62
2018-12-08T03:08:07.826Z,7.50
2018-12-08T03:10:02.066Z,7.69
2018-12-08T03:11:01.980Z,7.67
2018-12-08T03:12:56.245Z,7.67
2018-12-08T03:13:56.144Z,7.63
2018-12-08T03:15:50.335Z,7.76
2018-12-08T03:16:51.106Z,7.69
2018-12-08T03:18:44.535Z,7.67
2018-12-08T03:19:45.981Z,7.76
2018-12-08T03:21:40.388Z,7.74
2018-12-08T03:22:40.883Z,7.73
2018-12-08T03:24:36.519Z,7.70
2018-12-08T03:25:33.247Z,7.74
2018-12-08T03:27:27.512Z,7.77
2018-12-08T03:28:27.384Z,7.73
2018-12-08T03:30:21.637Z,7.77
2018-12-08T03:31:23.355Z,7.76
2018-12-08T03:33:15.780Z,7.85
2018-12-08T03:34:17.848Z,7.73
2018-12-08T03:36:09.959Z,7.81
2018-12-08T03:37:09.887Z,7.74
2018-12-08T03:39:04.081Z,7.82
2018-12-08T03:40:04.487Z,7.77
2018-12-08T03:41:59.108Z,7.85
2018-12-08T03:43:00.272Z,7.84
2018-12-08T03:44:54.552Z,7.74
2018-12-08T03:45:52.408Z,7.81
2018-12-08T03:47:47.162Z,7.85
2018-12-08T03:48:48.209Z,7.85
2018-12-08T03:50:41.148Z,7.88
2018-12-08T03:51:43.388Z,7.88
2018-12-08T03:53:37.296Z,7.94
2018-12-08T03:54:37.006Z,7.86
2018-12-08T03:56:31.135Z,7.85
2018-12-08T03:57:31.154Z,7.88
2018-12-08T03:59:26.809Z,7.99
2018-12-08T04:00:25.611Z,7.92
2018-12-08T04:02:20.368Z,7.94
2018-12-08T04:03:20.679Z,8.02
2018-12-08T04:05:15.102Z,7.99
2018-12-08T04:06:13.935Z,7.95
2018-12-08T04:08:06.959Z,7.89
2018-12-08T04:09:08.381Z,7.99
2018-12-08T04:11:02.828Z,7.94
2018-12-08T04:12:03.419Z,7.92
2018-12-08T04:13:57.431Z,7.94
2018-12-08T04:14:57.175Z,8.02
2018-12-08T04:16:49.533Z,8.03
2018-12-08T04:17:50.712Z,8.04
2018-12-08T04:19:45.823Z,8.12
2018-12-08T04:20:43.582Z,8.09
2018-12-08T04:22:40.067Z,8.21
2018-12-08T04:23:40.026Z,8.09
2018-12-08T04:25:33.513Z,8.12
2018-12-08T04:26:33.105Z,8.04
2018-12-08T04:28:28.297Z,8.18
2018-12-08T04:29:26.025Z,8.13
2018-12-08T04:31:24.861Z,8.18
2018-12-08T04:32:20.735Z,8.21
2018-12-08T04:34:17.815Z,8.24
2018-12-08T04:35:17.405Z,8.21
2018-12-08T04:37:12.136Z,8.18
2018-12-08T04:38:11.778Z,8.28
2018-12-08T04:40:06.349Z,8.29
2018-12-08T04:41:06.223Z,8.32
2018-12-08T04:43:01.947Z,8.32
2018-12-08T04:44:00.553Z,8.25
2018-12-08T04:45:55.649Z,8.39
2018-12-08T04:46:52.549Z,8.40
2018-12-08T04:48:49.858Z,8.37
2018-12-08T04:49:49.897Z,8.43
2018-12-08T04:51:44.064Z,8.31
2018-12-08T04:52:42.668Z,8.37
2018-12-08T04:54:37.487Z,8.36
2018-12-08T04:55:38.200Z,8.31
2018-12-08T04:57:31.756Z,8.32
2018-12-08T04:58:30.008Z,8.25
2018-12-08T05:00:24.166Z,8.27
2018-12-08T05:01:26.371Z,8.32
2018-12-08T05:03:20.224Z,8.22
2018-12-08T05:04:20.811Z,8.21
2018-12-08T05:06:14.204Z,8.27
2018-12-08T05:07:14.741Z,8.32
2018-12-08T05:09:08.531Z,8.29
2018-12-08T05:10:09.964Z,8.32
2018-12-08T05:12:00.821Z,8.27
2018-12-08T05:13:00.738Z,8.27
2018-12-08T05:14:58.218Z,8.27
2018-12-08T05:15:55.388Z,8.36
2018-12-08T05:17:51.177Z,8.25
2018-12-08T05:18:50.890Z,8.29
2018-12-08T05:20:44.255Z,8.42
2018-12-08T05:21:45.773Z,8.34
2018-12-08T05:23:38.388Z,8.45
2018-12-08T05:24:38.403Z,8.29
2018-12-08T05:26:34.109Z,8.42
2018-12-08T05:27:32.571Z,8.27
2018-12-08T05:29:28.178Z,8.34
2018-12-08T05:30:26.674Z,8.27
2018-12-08T05:32:22.987Z,8.42
2018-12-08T05:33:21.301Z,8.37
2018-12-08T05:35:16.950Z,8.37
2018-12-08T05:36:15.449Z,8.28
2018-12-08T05:38:12.322Z,8.24
2018-12-08T05:39:09.714Z,8.25
2018-12-08T05:40:11.780Z,8.25
2018-12-08T05:41:09.687Z,8.27
2018-12-08T05:42:09.573Z,8.31
2018-12-08T05:43:11.313Z,8.21
2018-12-08T05:44:09.560Z,8.18
2018-12-08T05:45:09.609Z,8.14
2018-12-08T05:46:11.211Z,8.22
2018-12-08T05:47:11.846Z,8.24
2018-12-08T05:48:10.851Z,8.24
2018-12-08T05:49:11.858Z,8.34
2018-12-08T05:50:11.161Z,8.31
2018-12-08T05:51:10.840Z,8.34
2018-12-08T05:52:10.292Z,8.31
2018-12-08T05:53:11.789Z,8.27
2018-12-08T05:54:09.548Z,8.20
2018-12-08T05:55:09.558Z,8.21
2018-12-08T05:56:11.238Z,8.24
2018-12-08T05:57:11.350Z,8.20
2018-12-08T05:58:09.460Z,8.22
2018-12-08T05:59:11.654Z,8.25
2018-12-08T06:00:11.061Z,8.18
2018-12-08T06:01:11.568Z,8.13
2018-12-08T06:02:11.629Z,8.27
2018-12-08T06:03:12.401Z,8.18
2018-12-08T06:04:10.789Z,8.20
2018-12-08T06:05:11.252Z,8.25
2018-12-08T06:06:11.373Z,8.34
2018-12-08T06:07:11.003Z,8.24
2018-12-08T06:08:09.458Z,8.24
2018-12-08T06:09:11.219Z,8.27
2018-12-08T06:10:10.813Z,8.34
2018-12-08T06:11:09.403Z,8.31
2018-12-08T06:12:11.208Z,8.24
2018-12-08T06:13:11.245Z,8.29
2018-12-08T06:14:13.642Z,8.27
2018-12-08T06:15:11.577Z,8.24
2018-12-08T06:16:11.384Z,8.27
2018-12-08T06:17:13.780Z,8.29
2018-12-08T06:18:11.262Z,8.32
2018-12-08T06:19:09.377Z,8.22
2018-12-08T06:20:11.252Z,8.27
2018-12-08T06:21:09.405Z,8.27
2018-12-08T06:22:09.320Z,8.25
2018-12-08T06:23:10.846Z,8.32
2018-12-08T06:24:11.386Z,8.28
2018-12-08T06:25:10.639Z,8.36
2018-12-08T06:26:46.419Z,8.27
2018-12-08T06:27:11.312Z,8.25
2018-12-08T06:28:10.470Z,8.31
2018-12-08T06:29:11.384Z,8.27
2018-12-08T06:30:11.171Z,8.24
2018-12-08T06:31:09.261Z,8.31
2018-12-08T06:32:11.303Z,8.32
2018-12-08T06:33:11.777Z,8.29
2018-12-08T06:34:10.820Z,8.29
2018-12-08T06:35:11.237Z,8.32
2018-12-08T06:36:11.138Z,8.27
2018-12-08T06:37:11.287Z,8.21
2018-12-08T06:38:10.751Z,8.31
2018-12-08T06:39:10.556Z,8.28
2018-12-08T06:40:09.219Z,8.31
2018-12-08T06:41:11.020Z,8.25
2018-12-08T06:42:10.928Z,8.25
2018-12-08T06:43:11.275Z,8.20
2018-12-08T06:44:09.243Z,8.29
2018-12-08T06:45:10.775Z,8.27
2018-12-08T06:46:11.048Z,8.36
2018-12-08T06:47:11.020Z,8.31
2018-12-08T06:48:09.223Z,8.42
2018-12-08T06:49:10.393Z,8.45
2018-12-08T06:50:09.126Z,8.46
2018-12-08T06:51:10.879Z,8.46
2018-12-08T06:52:10.170Z,8.50
2018-12-08T06:53:11.244Z,8.40
2018-12-08T06:54:11.139Z,8.45
2018-12-08T06:55:09.181Z,8.42
2018-12-08T06:56:11.047Z,8.45
2018-12-08T06:57:10.704Z,8.42
2018-12-08T06:58:11.148Z,8.50
2018-12-08T06:59:10.299Z,8.45
2018-12-08T07:00:10.660Z,8.39
2018-12-08T07:01:09.060Z,8.45
2018-12-08T07:02:09.047Z,8.39
2018-12-08T07:03:11.293Z,8.47
2018-12-08T07:04:11.833Z,8.32
2018-12-08T07:05:10.395Z,8.42
2018-12-08T07:06:10.268Z,8.39
2018-12-08T07:07:10.176Z,8.36
2018-12-08T07:08:11.103Z,8.49
2018-12-08T07:09:11.100Z,8.46
2018-12-08T07:10:10.595Z,8.42
2018-12-08T07:11:10.200Z,8.37
2018-12-08T07:12:08.981Z,8.43
2018-12-08T07:13:11.159Z,8.39
2018-12-08T07:14:11.325Z,8.47
2018-12-08T07:15:11.353Z,8.55
2018-12-08T07:16:11.349Z,8.50
2018-12-08T07:17:09.815Z,8.47
2018-12-08T07:18:11.398Z,8.40
2018-12-08T07:19:08.950Z,8.39
2018-12-08T07:20:10.751Z,8.43
2018-12-08T07:21:10.874Z,8.47
2018-12-08T07:22:09.682Z,8.45
2018-12-08T07:23:11.145Z,8.40
2018-12-08T07:24:09.033Z,8.50
2018-12-08T07:25:08.897Z,8.50
2018-12-08T07:26:08.940Z,8.45
2018-12-08T07:27:10.688Z,8.50
2018-12-08T07:28:12.858Z,8.42
2018-12-08T07:29:08.929Z,8.40
2018-12-08T07:30:10.159Z,8.40
2018-12-08T07:31:13.125Z,8.37
2018-12-08T07:32:11.337Z,8.37
2018-12-08T07:33:10.882Z,8.43
2018-12-08T07:34:10.073Z,8.36
2018-12-08T07:35:10.586Z,8.28
2018-12-08T07:36:10.392Z,8.28
2018-12-08T07:37:10.501Z,8.36
2018-12-08T07:38:10.672Z,8.42
2018-12-08T07:39:11.611Z,8.34
2018-12-08T07:40:10.138Z,8.28
2018-12-08T07:41:10.149Z,8.40
2018-12-08T07:42:10.740Z,8.42
2018-12-08T07:43:10.615Z,8.37
2018-12-08T07:44:08.768Z,8.40
2018-12-08T07:45:10.755Z,8.43
2018-12-08T07:46:11.096Z,8.39
2018-12-08T07:47:08.809Z,8.39
2018-12-08T07:48:08.781Z,8.50
2018-12-08T07:49:10.254Z,8.46
2018-12-08T07:50:08.710Z,8.45
2018-12-08T07:51:10.069Z,8.37
2018-12-08T07:52:10.796Z,8.36
2018-12-08T07:53:10.123Z,8.47
2018-12-08T07:54:08.675Z,8.47
2018-12-08T07:55:10.278Z,8.47
2018-12-08T07:56:10.258Z,8.40
2018-12-08T07:57:08.669Z,8.32
2018-12-08T07:58:10.287Z,8.32
2018-12-08T07:59:10.152Z,8.47
2018-12-08T08:00:09.889Z,8.37
2018-12-08T08:01:10.021Z,8.39
2018-12-08T08:02:10.402Z,8.42
2018-12-08T08:03:10.565Z,8.36
2018-12-08T08:04:08.647Z,8.42
2018-12-08T08:05:10.426Z,8.39
2018-12-08T08:06:09.902Z,8.37
2018-12-08T08:07:17.139Z,8.37
2018-12-08T08:08:10.223Z,8.42
2018-12-08T08:09:10.161Z,8.32
2018-12-08T08:10:09.711Z,8.45
2018-12-08T08:11:10.737Z,8.32
2018-12-08T08:12:10.422Z,8.45
2018-12-08T08:13:08.538Z,8.45
2018-12-08T08:14:08.533Z,8.36
2018-12-08T08:15:10.154Z,8.46
2018-12-08T08:16:10.515Z,8.37
2018-12-08T08:17:08.719Z,8.36
2018-12-08T08:18:08.825Z,8.34
2018-12-08T08:19:10.328Z,8.42
2018-12-08T08:20:10.913Z,8.42
2018-12-08T08:21:08.540Z,8.39
2018-12-08T08:22:12.420Z,8.37
2018-12-08T08:23:10.207Z,8.40
2018-12-08T08:24:08.478Z,8.39
2018-12-08T08:25:09.875Z,8.36
2018-12-08T08:26:10.776Z,8.36
2018-12-08T08:27:08.521Z,8.45
2018-12-08T08:28:10.295Z,8.36
2018-12-08T08:29:26.235Z,8.45
2018-12-08T08:30:10.533Z,8.49
2018-12-08T08:31:10.148Z,8.46
2018-12-08T08:32:09.878Z,8.43
2018-12-08T08:33:08.552Z,8.52
2018-12-08T08:34:10.453Z,8.46
2018-12-08T08:35:16.509Z,8.37
2018-12-08T08:36:10.858Z,8.43
2018-12-08T08:37:09.913Z,8.32
2018-12-08T08:38:10.423Z,8.47
2018-12-08T08:39:12.410Z,8.55
2018-12-08T08:40:10.388Z,8.40
2018-12-08T08:41:09.905Z,8.39
2018-12-08T08:42:10.310Z,8.49
2018-12-08T08:43:10.419Z,8.43
2018-12-08T08:44:10.108Z,8.54
2018-12-08T08:45:10.393Z,8.47
2018-12-08T08:46:08.436Z,8.46
2018-12-08T08:47:10.899Z,8.46
2018-12-08T08:48:08.320Z,8.46
2018-12-08T08:49:09.867Z,8.46
2018-12-08T08:50:09.797Z,8.39
2018-12-08T08:51:10.410Z,8.36
2018-12-08T08:52:09.682Z,8.43
2018-12-08T08:53:08.308Z,8.54
2018-12-08T08:54:09.819Z,8.55
2018-12-08T08:55:10.212Z,8.58
2018-12-08T08:56:08.279Z,8.58
2018-12-08T08:57:10.437Z,8.63
2018-12-08T08:58:10.005Z,8.65
2018-12-08T08:59:10.618Z,8.60
2018-12-08T09:00:10.778Z,8.68
2018-12-08T09:01:10.226Z,8.60
2018-12-08T09:02:10.450Z,8.68
2018-12-08T09:03:10.139Z,8.58
2018-12-08T09:04:10.004Z,8.71
2018-12-08T09:05:10.023Z,8.65
2018-12-08T09:06:10.853Z,8.57
2018-12-08T09:07:10.264Z,8.60
2018-12-08T09:08:10.082Z,8.45
2018-12-08T09:09:08.289Z,8.46
2018-12-08T09:10:10.413Z,8.49
2018-12-08T09:11:10.185Z,8.34
2018-12-08T09:12:10.438Z,8.49
2018-12-08T09:13:10.316Z,8.42
2018-12-08T09:14:13.248Z,8.46
2018-12-08T09:15:10.835Z,8.60
2018-12-08T09:16:09.867Z,8.54
2018-12-08T09:17:08.184Z,8.42
2018-12-08T09:18:10.213Z,8.39
2018-12-08T09:19:10.338Z,8.45
2018-12-08T09:20:09.392Z,8.58
2018-12-08T09:21:09.924Z,8.45
2018-12-08T09:22:08.100Z,8.45
2018-12-08T09:23:09.407Z,8.52
2018-12-08T09:24:09.371Z,8.46
2018-12-08T09:25:09.796Z,8.47
2018-12-08T09:26:09.360Z,8.47
2018-12-08T09:27:09.675Z,8.40
2018-12-08T09:28:08.057Z,8.32
2018-12-08T09:30:10.403Z,8.45
2018-12-08T09:31:10.266Z,8.43
2018-12-08T09:32:10.094Z,8.31
2018-12-08T09:33:10.121Z,8.54
2018-12-08T09:34:08.163Z,8.46
2018-12-08T09:35:09.179Z,8.45
2018-12-08T09:36:09.539Z,8.58
2018-12-08T09:37:09.737Z,8.46
2018-12-08T09:38:07.983Z,8.47
2018-12-08T09:39:10.519Z,8.47
2018-12-08T09:40:10.361Z,8.57
2018-12-08T09:41:08.027Z,8.55
2018-12-08T09:42:09.583Z,8.58
2018-12-08T09:43:39.493Z,8.58
2018-12-08T09:44:09.548Z,8.58
2018-12-08T09:45:09.722Z,8.54
2018-12-08T09:46:12.120Z,8.58
2018-12-08T09:47:09.087Z,8.52
2018-12-08T09:48:09.765Z,8.57
2018-12-08T09:49:10.811Z,8.55
2018-12-08T09:50:10.363Z,8.57
2018-12-08T09:51:09.872Z,8.54
2018-12-08T09:52:09.686Z,8.55
2018-12-08T09:53:07.971Z,8.60
2018-12-08T09:54:07.890Z,8.50
2018-12-08T09:55:11.864Z,8.46
2018-12-08T09:56:09.484Z,8.61
2018-12-08T09:57:09.734Z,8.60
2018-12-08T09:58:09.524Z,8.58
2018-12-08T09:59:09.347Z,8.61
2018-12-08T10:00:09.736Z,8.60
2018-12-08T10:01:09.633Z,8.55
2018-12-08T10:02:09.499Z,8.60
2018-12-08T10:03:07.872Z,8.63
2018-12-08T10:04:09.714Z,8.57
2018-12-08T10:05:09.785Z,8.65
2018-12-08T10:06:07.898Z,8.64
2018-12-08T10:07:08.240Z,8.67
2018-12-08T10:08:09.451Z,8.67
2018-12-08T10:09:09.860Z,8.58
2018-12-08T10:10:07.828Z,8.57
2018-12-08T10:11:10.103Z,8.55
2018-12-08T10:12:09.615Z,8.58
2018-12-08T10:13:09.642Z,8.49
2018-12-08T10:14:09.358Z,8.47
2018-12-08T10:15:09.697Z,8.42
2018-12-08T10:16:07.781Z,8.58
2018-12-08T10:17:09.745Z,8.45
2018-12-08T10:18:09.696Z,8.64
2018-12-08T10:19:08.864Z,8.54
2018-12-08T10:20:10.010Z,8.60
2018-12-08T10:21:09.800Z,8.46
2018-12-08T10:22:09.629Z,8.52
2018-12-08T10:23:07.810Z,8.61
2018-12-08T10:24:09.333Z,8.55
2018-12-08T10:25:09.645Z,8.61
2018-12-08T10:26:09.630Z,8.63
2018-12-08T10:27:09.516Z,8.64
2018-12-08T10:28:09.695Z,8.61
2018-12-08T10:29:09.915Z,8.58
2018-12-08T10:30:09.759Z,8.68
2018-12-08T10:31:10.232Z,8.60
2018-12-08T10:32:09.555Z,8.68
2018-12-08T10:33:07.614Z,8.63
2018-12-08T10:34:09.349Z,8.73
2018-12-08T10:35:09.612Z,8.70
2018-12-08T10:36:08.825Z,8.55
2018-12-08T10:37:09.283Z,8.52
2018-12-08T10:38:09.326Z,8.65
2018-12-08T10:39:08.675Z,8.57
2018-12-08T10:40:07.575Z,8.67
2018-12-08T10:41:09.803Z,8.75
2018-12-08T10:42:07.567Z,8.80
2018-12-08T10:43:08.872Z,8.78
2018-12-08T10:44:09.083Z,8.73
2018-12-08T10:45:09.660Z,8.70
2018-12-08T10:46:09.319Z,8.78
2018-12-08T10:47:07.525Z,8.76
2018-12-08T10:48:09.672Z,8.70
2018-12-08T10:49:10.127Z,8.76
2018-12-08T10:50:09.094Z,8.82
2018-12-08T10:51:09.199Z,8.82
2018-12-08T10:52:07.940Z,8.82
2018-12-08T10:53:09.361Z,8.80
2018-12-08T10:54:09.048Z,8.79
2018-12-08T10:55:08.214Z,8.80
2018-12-08T10:56:09.758Z,8.80
2018-12-08T10:57:09.848Z,8.80
2018-12-08T10:58:07.468Z,8.85
2018-12-08T10:59:09.646Z,8.88
2018-12-08T11:00:09.033Z,8.79
2018-12-08T11:01:07.507Z,8.83
2018-12-08T11:02:09.629Z,8.82
2018-12-08T11:03:07.463Z,8.83
2018-12-08T11:04:07.462Z,8.82
2018-12-08T11:05:11.664Z,8.93
2018-12-08T11:06:08.625Z,8.82
2018-12-08T11:07:07.436Z,8.82
2018-12-08T11:08:10.357Z,8.94
2018-12-08T11:09:09.447Z,8.85
2018-12-08T11:10:09.156Z,9.08
2018-12-08T11:11:09.175Z,8.97
2018-12-08T11:12:08.519Z,9.06
2018-12-08T11:13:08.812Z,9.00
2018-12-08T11:14:09.707Z,9.03
2018-12-08T11:15:09.254Z,9.06
2018-12-08T11:16:07.383Z,9.04
2018-12-08T11:17:11.354Z,9.10
2018-12-08T11:18:09.443Z,9.12
2018-12-08T11:19:08.808Z,9.12
2018-12-08T11:20:09.042Z,9.16
2018-12-08T11:21:07.346Z,9.10
2018-12-08T11:22:09.159Z,9.23
2018-12-08T11:23:09.257Z,9.16
2018-12-08T11:24:09.363Z,9.22
2018-12-08T11:25:09.265Z,9.20
2018-12-08T11:26:08.330Z,9.20
2018-12-08T11:27:10.188Z,9.34
2018-12-08T11:28:09.719Z,9.27
2018-12-08T11:29:08.598Z,9.38
2018-12-08T11:30:09.017Z,9.45
2018-12-08T11:31:09.379Z,9.41
2018-12-08T11:32:09.040Z,9.42
2018-12-08T11:33:07.269Z,9.44
2018-12-08T11:34:07.309Z,9.48
2018-12-08T11:35:08.556Z,9.55
2018-12-08T11:36:09.382Z,9.52
2018-12-08T11:37:07.214Z,9.44
2018-12-08T11:38:07.228Z,9.60
2018-12-08T11:39:07.278Z,9.58
2018-12-08T11:40:07.189Z,9.63
2018-12-08T11:41:08.755Z,9.67
2018-12-08T11:42:08.792Z,9.63
2018-12-08T11:43:09.863Z,9.68
2018-12-08T11:44:08.933Z,9.78
2018-12-08T11:45:07.505Z,9.80
2018-12-08T11:46:09.314Z,9.92
2018-12-08T11:47:07.145Z,9.85
2018-12-08T11:48:08.814Z,9.77
2018-12-08T11:49:08.766Z,9.75
2018-12-08T11:50:08.769Z,9.89
2018-12-08T11:51:08.830Z,9.88
2018-12-08T11:52:09.869Z,9.89
2018-12-08T11:53:09.203Z,9.80
2018-12-08T11:54:09.649Z,9.92
2018-12-08T11:55:09.301Z,9.86
2018-12-08T11:56:08.858Z,9.86
2018-12-08T11:57:10.255Z,9.86
2018-12-08T11:58:08.444Z,9.86
2018-12-08T11:59:08.868Z,9.85
2018-12-08T12:00:08.215Z,9.77
2018-12-08T12:01:08.831Z,9.88
2018-12-08T12:02:16.283Z,9.89
2018-12-08T12:03:08.377Z,9.89
2018-12-08T12:04:08.876Z,9.91
2018-12-08T12:05:08.833Z,10.10
2018-12-08T12:06:08.315Z,10.02
2018-12-08T12:07:08.890Z,10.04
2018-12-08T12:08:08.455Z,10.42
2018-12-08T12:09:08.665Z,11.01
2018-12-08T12:10:08.288Z,11.17
2018-12-08T12:11:08.334Z,11.42
2018-12-08T12:12:08.811Z,11.11
2018-12-08T12:13:07.037Z,10.60
2018-12-08T12:14:07.065Z,10.49
2018-12-08T12:15:06.981Z,10.22
2018-12-08T12:16:08.341Z,10.31
2018-12-08T12:17:08.622Z,10.32
2018-12-08T12:18:08.794Z,10.07
2018-12-08T12:19:06.963Z,10.17
2018-12-08T12:20:07.016Z,10.44
2018-12-08T12:21:07.038Z,10.55
2018-12-08T12:22:10.023Z,10.49
2018-12-08T12:23:07.041Z,10.52
2018-12-08T12:24:06.957Z,10.39
2018-12-08T12:25:09.084Z,10.43
2018-12-08T12:26:08.530Z,10.29
2018-12-08T12:27:07.484Z,10.36
2018-12-08T12:28:08.228Z,10.35
2018-12-08T12:29:08.233Z,10.28
2018-12-08T12:30:08.407Z,10.20
2018-12-08T12:31:08.403Z,10.16
2018-12-08T12:32:08.604Z,10.24
2018-12-08T12:33:06.888Z,10.16
2018-12-08T12:34:08.559Z,10.17
2018-12-08T12:35:06.889Z,10.22
2018-12-08T12:36:09.866Z,10.24
2018-12-08T12:37:08.899Z,10.16
2018-12-08T12:38:06.915Z,10.20
2018-12-08T12:39:08.028Z,10.26
2018-12-08T12:40:08.328Z,10.10
2018-12-08T12:41:09.313Z,10.16
2018-12-08T12:42:08.874Z,10.13
2018-12-08T12:43:08.128Z,10.10
2018-12-08T12:44:08.688Z,10.17
2018-12-08T12:45:06.930Z,10.10
2018-12-08T12:46:06.820Z,10.04
2018-12-08T12:47:06.855Z,10.10
2018-12-08T12:48:06.826Z,10.17
2018-12-08T12:49:06.798Z,10.32
2018-12-08T12:50:06.788Z,10.32
2018-12-08T12:51:06.791Z,10.32
2018-12-08T12:52:06.779Z,10.42
2018-12-08T12:53:06.764Z,10.34
2018-12-08T12:54:06.776Z,10.25
2018-12-08T12:55:06.769Z,10.32
2018-12-08T12:56:06.760Z,10.26
2018-12-08T12:57:06.738Z,10.29
2018-12-08T12:58:06.732Z,10.38
2018-12-08T12:59:06.752Z,10.46
2018-12-08T13:00:06.736Z,10.20
2018-12-08T13:01:06.736Z,10.28
2018-12-08T13:02:06.719Z,10.25
2018-12-08T13:03:06.729Z,10.43
2018-12-08T13:04:06.718Z,10.36
2018-12-08T13:05:06.724Z,10.26
2018-12-08T13:06:06.709Z,10.31
2018-12-08T13:07:06.686Z,10.22
2018-12-08T13:08:06.877Z,10.25
2018-12-08T13:09:06.686Z,10.28
2018-12-08T13:10:06.668Z,10.20
2018-12-08T13:11:06.673Z,10.13
2018-12-08T13:12:06.683Z,10.17
2018-12-08T13:13:06.689Z,10.20
2018-12-08T13:14:06.669Z,10.24
2018-12-08T13:15:06.683Z,10.34
2018-12-08T13:16:06.672Z,10.29
2018-12-08T13:17:06.649Z,10.32
2018-12-08T13:18:06.663Z,10.26
2018-12-08T13:19:06.688Z,10.20
2018-12-08T13:20:06.652Z,10.26
2018-12-08T13:21:06.629Z,10.29
2018-12-08T13:22:06.625Z,10.13
2018-12-08T13:23:06.624Z,10.16
2018-12-08T13:24:06.612Z,10.16
2018-12-08T13:25:06.607Z,10.13
2018-12-08T13:26:06.602Z,10.18
2018-12-08T13:27:06.589Z,10.24
2018-12-08T13:28:06.582Z,10.06
2018-12-08T13:29:06.597Z,10.09
2018-12-08T13:30:06.573Z,10.10
2018-12-08T13:31:06.590Z,10.16
2018-12-08T13:32:06.579Z,10.26
2018-12-08T13:33:06.562Z,10.04
2018-12-08T13:34:06.540Z,10.02
2018-12-08T13:35:06.553Z,9.89
2018-12-08T13:36:06.556Z,10.07
2018-12-08T13:37:06.549Z,10.07
2018-12-08T13:38:06.650Z,10.10
2018-12-08T13:39:06.515Z,9.96
2018-12-08T13:40:06.527Z,9.98
2018-12-08T13:41:06.533Z,10.06
2018-12-08T13:42:06.518Z,10.01
2018-12-08T13:43:06.520Z,9.98
2018-12-08T13:44:06.529Z,9.99
2018-12-08T13:45:06.528Z,9.92
2018-12-08T13:46:06.539Z,9.93
2018-12-08T13:47:06.486Z,10.01
2018-12-08T13:48:06.543Z,10.04
2018-12-08T13:49:06.534Z,9.85
2018-12-08T13:50:06.523Z,9.88
2018-12-08T13:51:06.489Z,9.86
2018-12-08T13:52:06.491Z,9.88
2018-12-08T13:53:07.778Z,9.81
2018-12-08T13:54:08.636Z,9.77
2018-12-08T13:55:06.483Z,9.85
2018-12-08T13:56:06.521Z,9.86
2018-12-08T13:57:06.440Z,9.88
2018-12-08T13:58:06.442Z,9.80
2018-12-08T13:59:06.444Z,9.78
2018-12-08T14:00:06.404Z,9.75
2018-12-08T14:01:06.401Z,9.88
2018-12-08T14:02:06.501Z,9.86
2018-12-08T14:03:06.402Z,9.75
2018-12-08T14:04:06.463Z,9.77
2018-12-08T14:05:06.432Z,9.80
2018-12-08T14:06:06.507Z,9.77
2018-12-08T14:07:06.762Z,9.70
2018-12-08T14:08:06.463Z,9.75
2018-12-08T14:09:06.360Z,9.80
2018-12-08T14:10:06.383Z,9.63
2018-12-08T14:11:06.370Z,9.63
2018-12-08T14:12:06.380Z,9.67
2018-12-08T14:13:06.346Z,9.67
2018-12-08T14:14:06.382Z,9.63
2018-12-08T14:15:06.322Z,9.52
2018-12-08T14:16:06.363Z,9.50
2018-12-08T14:17:06.340Z,9.55
2018-12-08T14:18:06.340Z,9.65
2018-12-08T14:19:06.280Z,9.48
2018-12-08T14:20:06.333Z,9.40
2018-12-08T14:21:06.524Z,9.48
2018-12-08T14:22:06.273Z,9.44
2018-12-08T14:23:06.281Z,9.53
2018-12-08T14:24:06.266Z,9.44
2018-12-08T14:25:06.251Z,9.52
2018-12-08T14:26:06.242Z,9.52
2018-12-08T14:27:06.242Z,9.49
2018-12-08T14:28:06.231Z,9.45
2018-12-08T14:29:06.233Z,9.62
2018-12-08T14:30:06.212Z,9.62
2018-12-08T14:31:06.235Z,9.56
2018-12-08T14:32:06.207Z,9.56
2018-12-08T14:33:06.229Z,9.53
2018-12-08T14:34:06.223Z,9.45
2018-12-08T14:35:06.219Z,9.56
2018-12-08T14:36:06.193Z,9.55
2018-12-08T14:37:06.216Z,9.67
2018-12-08T14:38:06.172Z,9.65
2018-12-08T14:39:06.209Z,9.58
2018-12-08T14:40:06.169Z,9.49
2018-12-08T14:41:06.161Z,9.50
2018-12-08T14:42:06.170Z,9.48
2018-12-08T14:43:06.142Z,9.58
2018-12-08T14:44:06.132Z,9.50
2018-12-08T14:45:06.186Z,9.58
2018-12-08T14:46:06.108Z,9.65
2018-12-08T14:47:06.119Z,9.58
2018-12-08T14:48:06.129Z,9.56
2018-12-08T14:49:06.111Z,9.67
2018-12-08T14:50:06.091Z,9.58
2018-12-08T14:51:06.108Z,9.55
2018-12-08T14:52:06.100Z,9.65
2018-12-08T14:53:06.103Z,9.60
2018-12-08T14:54:06.090Z,9.63
2018-12-08T14:55:06.089Z,9.63
2018-12-08T14:56:06.043Z,9.60
2018-12-08T14:57:06.073Z,9.68
2018-12-08T14:58:06.080Z,9.67
2018-12-08T14:59:06.096Z,9.63
2018-12-08T15:00:06.448Z,9.60
2018-12-08T15:01:06.080Z,9.65
2018-12-08T15:02:06.020Z,9.60